Time;durP1;ratioP1;P1;durP2;ratioP2;P2;SDS_P1;SDS_P2;PMS_P1;PMS_P2;Temp;Humidity;BMP_temperature;BMP_pressure;BME280_temperature;BME280_humidity;BME280_pressure;Samples;Min_cycle;Max_cycle;Signal;HPM_P1;HPM_P2
2023/06/09 00:01:35;;;;;;;;;;;;;;;16.30;70.48;97965.16;7381142;19;19923;-78
2023/06/09 00:04:02;;;;;;;;;;;;;;;16.21;71.23;97961.00;7373602;19;19929;-77
2023/06/09 00:06:30;;;;;;;;;;;;;;;16.23;71.26;97969.63;7381929;19;19921;-78
2023/06/09 00:09:00;;;;;;;;;;;;;;;16.21;70.96;97972.50;7376052;19;19919;-78
2023/06/09 00:11:26;;;;;;;;;;;;;;;16.30;71.82;97972.31;7374515;19;20266;-77
2023/06/09 00:13:53;;;;;;;;;;;;;;;16.32;71.42;97973.75;7376899;19;19919;-78
2023/06/09 00:16:23;;;;;;;;;;;;;;;16.17;71.11;97973.13;7381701;19;19942;-78
2023/06/09 00:18:51;;;;;;;;;;;;;;;16.21;72.05;97977.03;7377766;19;20031;-77
2023/06/09 00:21:18;;;;;;;;;;;;;;;16.24;71.90;97979.28;7377662;19;19929;-78
2023/06/09 00:23:45;;;;;;;;;;;;;;;16.28;71.65;97972.53;7379994;19;19923;-78
2023/06/09 00:26:12;;;;;;;;;;;;;;;16.19;71.16;97979.91;7377446;19;19929;-78
2023/06/09 00:28:42;;;;;;;;;;;;;;;16.22;71.74;97979.50;7372302;19;19918;-77
2023/06/09 00:31:10;;;;;;;;;;;;;;;16.28;71.87;97969.84;7371970;19;19929;-78
2023/06/09 00:33:36;;;;;;;;;;;;;;;16.32;72.03;97965.75;7382148;19;20396;-78
2023/06/09 00:36:03;;;;;;;;;;;;;;;16.32;72.03;97967.59;7375755;19;20263;-78
2023/06/09 00:38:30;;;;;;;;;;;;;;;16.36;72.10;97971.53;7377276;19;19919;-78
2023/06/09 00:40:56;;;;;;;;;;;;;;;16.35;71.85;97969.84;7376558;19;19978;-77
2023/06/09 00:43:23;;;;;;;;;;;;;;;16.35;71.70;97961.84;7378010;19;19940;-79
2023/06/09 00:45:50;;;;;;;;;;;;;;;16.35;71.65;97968.03;7377185;19;20029;-79
2023/06/09 00:48:16;;;;;;;;;;;;;;;16.34;71.71;97965.56;7378550;19;20422;-77
2023/06/09 00:50:43;;;;;;;;;;;;;;;16.32;71.95;97971.09;7384840;19;19918;-78
2023/06/09 00:53:10;;;;;;;;;;;;;;;16.32;72.11;97978.28;7384550;19;19922;-78
2023/06/09 00:55:38;;;;;;;;;;;;;;;16.28;71.90;97979.72;7387289;19;19926;-78
2023/06/09 00:58:04;;;;;;;;;;;;;;;16.21;71.85;97967.16;7381583;19;19949;-78
2023/06/09 01:00:33;;;;;;;;;;;;;;;16.14;71.88;97962.81;7384910;19;19914;-78
2023/06/09 01:03:00;;;;;;;;;;;;;;;16.17;72.73;97975.78;7381902;19;19914;-78
2023/06/09 01:05:28;;;;;;;;;;;;;;;16.15;72.10;97975.97;7384839;19;19919;-78
2023/06/09 01:07:57;;;;;;;;;;;;;;;16.13;72.03;97974.53;7376764;19;19925;-79
2023/06/09 01:10:26;;;;;;;;;;;;;;;16.09;71.52;97981.28;7386217;19;19919;-78
2023/06/09 01:12:57;;;;;;;;;;;;;;;16.08;72.00;97977.81;7383078;19;20313;-79
2023/06/09 01:15:28;;;;;;;;;;;;;;;16.00;72.28;97969.97;7385475;19;20392;-78
2023/06/09 01:17:56;;;;;;;;;;;;;;;15.90;72.48;97970.34;7382454;19;19926;-77
2023/06/09 01:20:38;;;;;;;;;;;;;;;15.93;72.80;97969.13;7380851;19;19967;-78
2023/06/09 01:23:06;;;;;;;;;;;;;;;15.93;72.80;97969.97;7386312;19;19967;-78
2023/06/09 01:25:37;;;;;;;;;;;;;;;15.96;72.92;97971.41;7387101;19;19969;-79
2023/06/09 01:28:07;;;;;;;;;;;;;;;15.99;73.34;97971.00;7379331;19;19978;-78
2023/06/09 01:30:37;;;;;;;;;;;;;;;15.96;73.30;97976.75;7383512;19;19928;-79
2023/06/09 01:33:06;;;;;;;;;;;;;;;15.96;73.48;97968.75;7383638;19;19974;-79
2023/06/09 01:35:33;;;;;;;;;;;;;;;15.98;73.83;97972.00;7382981;19;19942;-79
2023/06/09 01:38:00;;;;;;;;;;;;;;;15.98;73.83;97975.53;7383140;19;19941;-78
2023/06/09 01:40:27;;;;;;;;;;;;;;;15.99;73.96;97968.34;7385948;19;19927;-78
2023/06/09 01:42:56;;;;;;;;;;;;;;;15.99;73.66;97963.81;7383335;19;19958;-79
2023/06/09 01:45:23;;;;;;;;;;;;;;;15.97;73.76;97960.53;7382526;19;19974;-79
2023/06/09 01:47:49;;;;;;;;;;;;;;;15.82;73.03;97959.84;7382810;19;19919;-79
2023/06/09 01:50:21;;;;;;;;;;;;;;;15.83;73.90;97960.69;7382243;19;19933;-78
2023/06/09 01:53:06;;;;;;;;;;;;;;;15.80;73.95;97964.59;7382233;19;19919;-79
2023/06/09 01:55:37;;;;;;;;;;;;;;;15.83;74.16;97961.50;7388166;19;20303;-79
2023/06/09 01:58:03;;;;;;;;;;;;;;;15.82;74.13;97962.53;7381728;19;20542;-79
2023/06/09 02:00:30;;;;;;;;;;;;;;;15.81;74.12;97966.22;7388774;19;20334;-78
2023/06/09 02:02:57;;;;;;;;;;;;;;;15.80;73.70;97957.41;7385008;19;19915;-79
2023/06/09 02:05:25;;;;;;;;;;;;;;;15.80;74.08;97959.25;7378898;19;20308;-78
2023/06/09 02:07:53;;;;;;;;;;;;;;;15.77;73.84;97963.13;7381352;19;19919;-77
2023/06/09 02:10:22;;;;;;;;;;;;;;;15.79;73.71;97968.25;7379205;19;19952;-78
2023/06/09 02:12:49;;;;;;;;;;;;;;;15.79;73.71;97969.06;7384992;19;19960;-78
2023/06/09 02:15:16;;;;;;;;;;;;;;;15.76;73.80;97966.81;7383667;19;19927;-79
2023/06/09 02:17:43;;;;;;;;;;;;;;;15.78;73.94;97966.63;7387249;19;19982;-77
2023/06/09 02:20:10;;;;;;;;;;;;;;;15.74;73.92;97965.34;7379839;19;19978;-79
2023/06/09 02:22:38;;;;;;;;;;;;;;;15.74;74.08;97962.69;7384618;19;19923;-80
2023/06/09 02:25:05;;;;;;;;;;;;;;;15.75;74.59;97959.84;7376499;19;19938;-77
2023/06/09 02:27:32;;;;;;;;;;;;;;;15.75;74.26;97961.69;7377255;19;20641;-79
2023/06/09 02:29:59;;;;;;;;;;;;;;;15.73;74.52;97953.88;7384731;19;19931;-78
2023/06/09 02:32:26;;;;;;;;;;;;;;;15.73;74.43;97958.38;7383204;19;19919;-79
2023/06/09 02:34:52;;;;;;;;;;;;;;;15.73;74.25;97953.06;7386503;19;19943;-79
2023/06/09 02:37:19;;;;;;;;;;;;;;;15.69;74.41;97960.66;7383591;19;19939;-78
2023/06/09 02:39:46;;;;;;;;;;;;;;;15.71;74.42;97958.56;7382554;19;20352;-78
2023/06/09 02:42:12;;;;;;;;;;;;;;;15.70;73.99;97962.28;7376009;19;20555;-80
2023/06/09 02:44:39;;;;;;;;;;;;;;;15.66;73.71;97955.66;7380083;19;19923;-79
2023/06/09 02:47:06;;;;;;;;;;;;;;;15.63;73.80;97957.91;7378829;19;19918;-79
2023/06/09 02:49:33;;;;;;;;;;;;;;;15.56;73.68;97958.69;7380465;19;19922;-78
2023/06/09 02:52:01;;;;;;;;;;;;;;;15.45;73.94;97961.91;7381932;19;19919;-78
2023/06/09 02:54:31;;;;;;;;;;;;;;;15.49;74.41;97967.69;7380900;19;19914;-78
2023/06/09 02:56:59;;;;;;;;;;;;;;;15.48;73.56;97964.19;7382792;19;20254;-78
2023/06/09 02:59:27;;;;;;;;;;;;;;;15.47;74.34;97961.72;7377114;19;20254;-78
2023/06/09 03:01:54;;;;;;;;;;;;;;;15.46;74.44;97962.75;7379731;19;20323;-78
2023/06/09 03:04:23;;;;;;;;;;;;;;;15.46;74.00;97966.25;7376425;19;19923;-77
2023/06/09 03:06:53;;;;;;;;;;;;;;;15.44;73.99;97964.78;7380013;19;19946;-78
2023/06/09 03:09:20;;;;;;;;;;;;;;;15.42;73.50;97966.81;7380674;19;21102;-78
2023/06/09 03:11:52;;;;;;;;;;;;;;;15.43;73.69;97963.13;7383907;19;19918;-78
2023/06/09 03:14:20;;;;;;;;;;;;;;;15.43;73.84;97971.13;7380673;19;20577;-78
2023/06/09 03:16:47;;;;;;;;;;;;;;;15.43;73.86;97963.97;7377859;19;19949;-78
2023/06/09 03:19:15;;;;;;;;;;;;;;;15.39;74.29;97969.88;7378425;19;19935;-79
2023/06/09 03:21:43;;;;;;;;;;;;;;;15.39;74.01;97962.69;7381569;19;20283;-78
2023/06/09 03:24:12;;;;;;;;;;;;;;;15.33;73.96;97964.31;7381723;19;19923;-77
2023/06/09 03:26:39;;;;;;;;;;;;;;;15.35;74.18;97967.63;7372296;19;19930;-79
2023/06/09 03:29:07;;;;;;;;;;;;;;;15.17;74.39;97958.47;7379906;19;19918;-79
2023/06/09 03:31:35;;;;;;;;;;;;;;;15.10;74.82;97969.91;7379441;19;19919;-77
2023/06/09 03:34:02;;;;;;;;;;;;;;;15.11;74.57;97965.38;7377175;19;19934;-78
2023/06/09 03:36:30;;;;;;;;;;;;;;;15.11;74.74;97965.38;7379642;19;20657;-78
2023/06/09 03:38:56;;;;;;;;;;;;;;;15.09;75.05;97967.44;7378678;19;19943;-77
2023/06/09 03:41:24;;;;;;;;;;;;;;;15.13;75.26;97968.69;7377907;19;19926;-78
2023/06/09 03:43:53;;;;;;;;;;;;;;;15.18;75.35;97968.94;7380028;19;20659;-78
2023/06/09 03:46:20;;;;;;;;;;;;;;;15.24;75.14;97965.47;7376048;19;19933;-78
2023/06/09 03:48:47;;;;;;;;;;;;;;;15.18;74.60;97966.25;7376412;19;19918;-78
2023/06/09 03:51:14;;;;;;;;;;;;;;;15.20;74.88;97966.91;7376842;19;19947;-78
2023/06/09 03:53:41;;;;;;;;;;;;;;;15.17;74.65;97967.28;7384582;19;19918;-78
2023/06/09 03:56:08;;;;;;;;;;;;;;;15.11;75.14;97960.91;7382770;19;19923;-79
2023/06/09 03:58:34;;;;;;;;;;;;;;;15.10;75.59;97966.41;7382202;19;19922;-79
2023/06/09 04:01:02;;;;;;;;;;;;;;;15.10;75.28;97967.22;7382017;19;19914;-79
2023/06/09 04:03:30;;;;;;;;;;;;;;;15.13;75.24;97968.69;7382311;19;19988;-78
2023/06/09 04:05:56;;;;;;;;;;;;;;;15.16;75.44;97973.63;7373193;19;19932;-78
2023/06/09 04:08:25;;;;;;;;;;;;;;;15.11;75.12;97968.91;7376267;19;19952;-79
2023/06/09 04:10:52;;;;;;;;;;;;;;;15.01;75.40;97957.75;7379207;19;19915;-79
2023/06/09 04:13:18;;;;;;;;;;;;;;;14.95;75.69;97955.03;7379214;19;19910;-78
2023/06/09 04:15:45;;;;;;;;;;;;;;;14.93;75.91;97961.38;7381162;19;19936;-79
2023/06/09 04:18:13;;;;;;;;;;;;;;;15.04;76.08;97972.53;7380193;19;19922;-78
2023/06/09 04:20:40;;;;;;;;;;;;;;;15.13;76.16;97974.84;7381948;19;19914;-78
2023/06/09 04:23:08;;;;;;;;;;;;;;;15.19;76.09;97981.22;7387030;19;19919;-79
2023/06/09 04:25:39;;;;;;;;;;;;;;;15.26;76.17;97984.75;7387613;19;19923;-79
2023/06/09 04:28:10;;;;;;;;;;;;;;;15.36;76.27;97974.56;7387097;19;19977;-79
2023/06/09 04:30:38;;;;;;;;;;;;;;;15.41;76.16;97984.66;7387354;19;19941;-78
2023/06/09 04:33:07;;;;;;;;;;;;;;;15.48;75.93;97982.03;7387965;19;19950;-77
2023/06/09 04:35:35;;;;;;;;;;;;;;;15.46;75.26;97976.91;7386589;19;19958;-79
2023/06/09 04:38:06;;;;;;;;;;;;;;;15.52;75.97;97970.78;7387466;19;20254;-79
2023/06/09 04:40:37;;;;;;;;;;;;;;;15.61;75.65;97975.94;7382553;19;19914;-80
2023/06/09 04:43:07;;;;;;;;;;;;;;;15.69;76.33;97973.97;7387698;19;19966;-78
2023/06/09 04:45:34;;;;;;;;;;;;;;;15.76;76.25;97974.81;7383314;19;19927;-79
2023/06/09 04:48:12;;;;;;;;;;;;;;;15.77;75.69;97976.47;7388697;19;19919;-79
2023/06/09 04:50:39;;;;;;;;;;;;;;;15.84;75.78;97971.16;7384284;19;19921;-79
2023/06/09 04:53:07;;;;;;;;;;;;;;;15.89;75.55;97970.56;7385625;19;20380;-78
2023/06/09 04:55:45;;;;;;;;;;;;;;;15.77;74.42;97965.81;7383053;19;20719;-78
2023/06/09 04:58:11;;;;;;;;;;;;;;;15.73;74.75;97967.22;7383025;19;19934;-79
2023/06/09 05:00:39;;;;;;;;;;;;;;;15.73;74.63;97975.22;7383668;19;19974;-79
2023/06/09 05:03:07;;;;;;;;;;;;;;;15.83;75.14;97979.38;7384544;19;20005;-79
2023/06/09 05:05:34;;;;;;;;;;;;;;;15.89;75.63;97994.56;7380339;19;19923;-80
2023/06/09 05:08:01;;;;;;;;;;;;;;;15.94;76.00;97982.28;7387297;19;19935;-79
2023/06/09 05:10:28;;;;;;;;;;;;;;;16.00;75.46;97986.81;7385839;19;19914;-79
2023/06/09 05:12:55;;;;;;;;;;;;;;;16.05;75.02;97993.41;7385424;19;19927;-80
2023/06/09 05:15:23;;;;;;;;;;;;;;;16.10;74.57;97989.09;7385581;19;19914;-79
2023/06/09 05:17:51;;;;;;;;;;;;;;;16.17;75.54;97984.63;7388325;19;20268;-79
2023/06/09 05:20:18;;;;;;;;;;;;;;;16.19;74.90;97979.91;7384376;19;20281;-79
2023/06/09 05:22:47;;;;;;;;;;;;;;;16.26;74.62;97981.75;7384119;19;20367;-80
2023/06/09 05:25:14;;;;;;;;;;;;;;;16.34;74.60;97984.25;7382806;19;20002;-79
2023/06/09 05:27:43;;;;;;;;;;;;;;;16.39;74.30;97984.47;7387282;19;19921;-78
2023/06/09 05:30:10;;;;;;;;;;;;;;;16.46;74.14;97982.63;7381586;19;20310;-80
2023/06/09 05:32:37;;;;;;;;;;;;;;;16.54;74.43;97987.78;7386883;19;19911;-79
2023/06/09 05:35:04;;;;;;;;;;;;;;;16.63;74.32;97994.56;7386554;19;19938;-79
2023/06/09 05:37:32;;;;;;;;;;;;;;;16.65;74.36;97989.84;7387839;19;19956;-80
2023/06/09 05:39:59;;;;;;;;;;;;;;;16.71;74.51;97993.53;7385825;19;19922;-79
2023/06/09 05:42:26;;;;;;;;;;;;;;;16.74;73.28;97995.78;7382528;19;19922;-78
2023/06/09 05:44:52;;;;;;;;;;;;;;;16.74;73.15;97998.47;7386686;19;19925;-79
2023/06/09 05:47:19;;;;;;;;;;;;;;;16.82;72.58;97995.63;7379135;19;19923;-78
2023/06/09 05:49:46;;;;;;;;;;;;;;;16.90;73.39;97999.94;7386912;19;19926;-79
2023/06/09 05:52:13;;;;;;;;;;;;;;;16.95;73.80;97997.47;7388405;19;19919;-80
2023/06/09 05:54:40;;;;;;;;;;;;;;;17.01;73.66;97998.50;7389124;19;19923;-79
2023/06/09 05:57:07;;;;;;;;;;;;;;;17.05;73.01;98011.25;7385267;19;19954;-80
2023/06/09 05:59:34;;;;;;;;;;;;;;;16.99;72.37;98012.09;7385300;19;20599;-81
2023/06/09 06:02:01;;;;;;;;;;;;;;;16.99;72.90;98005.94;7382485;19;19910;-76
2023/06/09 06:04:28;;;;;;;;;;;;;;;16.95;72.87;98002.81;7381969;19;19922;-79
2023/06/09 06:06:55;;;;;;;;;;;;;;;17.02;72.59;98000.16;7386190;19;19923;-79
2023/06/09 06:09:22;;;;;;;;;;;;;;;17.11;71.94;98005.09;7384389;19;19911;-79
2023/06/09 06:11:48;;;;;;;;;;;;;;;17.15;71.88;98002.00;7385812;19;19926;-78
2023/06/09 06:14:15;;;;;;;;;;;;;;;17.20;71.90;98007.56;7388055;19;19926;-78
2023/06/09 06:16:42;;;;;;;;;;;;;;;17.22;72.09;98008.16;7388252;19;19911;-79
2023/06/09 06:19:11;;;;;;;;;;;;;;;17.28;72.21;98010.84;7382465;19;19927;-79
2023/06/09 06:21:45;;;;;;;;;;;;;;;17.41;72.27;98009.19;7382940;19;19947;-79
2023/06/09 06:24:11;;;;;;;;;;;;;;;17.48;71.16;98005.47;7383746;19;19918;-79
2023/06/09 06:26:38;;;;;;;;;;;;;;;17.53;71.00;98008.31;7380049;19;20266;-79
2023/06/09 06:29:05;;;;;;;;;;;;;;;17.67;72.36;98002.97;7384490;19;20245;-77
2023/06/09 06:31:32;;;;;;;;;;;;;;;17.72;72.34;98000.44;7385550;19;20002;-79
2023/06/09 06:33:59;;;;;;;;;;;;;;;17.77;71.13;98004.16;7384070;19;19919;-78
2023/06/09 06:36:28;;;;;;;;;;;;;;;17.67;70.01;98001.09;7381721;19;19923;-78
2023/06/09 06:38:55;;;;;;;;;;;;;;;17.82;70.62;98014.22;7381969;19;19981;-77
2023/06/09 06:41:21;;;;;;;;;;;;;;;17.86;71.29;98015.47;7380218;19;20337;-77
2023/06/09 06:43:49;;;;;;;;;;;;;;;17.95;71.50;98014.19;7380998;19;19986;-78
2023/06/09 06:46:17;;;;;;;;;;;;;;;17.98;69.93;98015.63;7378790;19;19958;-78
2023/06/09 06:48:44;;;;;;;;;;;;;;;18.09;71.21;98016.81;7378925;19;19923;-77
2023/06/09 06:51:11;;;;;;;;;;;;;;;18.17;71.07;98020.09;7380858;19;19925;-78
2023/06/09 06:53:38;;;;;;;;;;;;;;;18.29;71.19;98017.53;7376349;19;19938;-78
2023/06/09 06:56:05;;;;;;;;;;;;;;;18.39;70.93;98012.56;7381991;19;21233;-79
2023/06/09 06:58:32;;;;;;;;;;;;;;;18.39;68.16;97999.16;7383793;19;20312;-78
2023/06/09 07:00:59;;;;;;;;;;;;;;;18.39;67.57;98007.19;7382940;19;19911;-77
2023/06/09 07:03:27;;;;;;;;;;;;;;;18.41;68.46;98007.81;7381650;19;19921;-78
2023/06/09 07:05:54;;;;;;;;;;;;;;;18.46;69.24;98006.31;7383900;19;19933;-78
2023/06/09 07:08:21;;;;;;;;;;;;;;;18.53;70.64;97999.06;7377856;19;19914;-78
2023/06/09 07:10:47;;;;;;;;;;;;;;;18.60;70.71;98002.53;7377547;19;19918;-77
2023/06/09 07:13:15;;;;;;;;;;;;;;;18.68;70.07;98010.31;7381872;19;19919;-78
2023/06/09 07:15:42;;;;;;;;;;;;;;;18.86;69.64;98012.28;7382901;19;20432;-76
2023/06/09 07:18:09;;;;;;;;;;;;;;;19.02;68.94;98005.56;7381331;19;19919;-79
2023/06/09 07:20:36;;;;;;;;;;;;;;;19.05;68.82;98019.34;7380504;19;19919;-78
2023/06/09 07:23:03;;;;;;;;;;;;;;;19.12;68.51;98016.63;7384190;19;19918;-79
2023/06/09 07:25:31;;;;;;;;;;;;;;;19.23;67.74;98015.91;7378905;19;19922;-78
2023/06/09 07:27:58;;;;;;;;;;;;;;;19.32;66.67;98020.97;7377976;19;19923;-76
2023/06/09 07:30:24;;;;;;;;;;;;;;;19.43;67.00;98014.88;7380781;19;19918;-78
2023/06/09 07:32:51;;;;;;;;;;;;;;;19.57;67.67;98029.00;7380503;19;19925;-79
2023/06/09 07:35:19;;;;;;;;;;;;;;;19.63;67.83;98028.09;7379399;19;19922;-78
2023/06/09 07:37:48;;;;;;;;;;;;;;;19.67;67.03;98027.47;7384073;19;19923;-78
2023/06/09 07:40:15;;;;;;;;;;;;;;;19.67;67.81;98022.09;7381143;19;19918;-77
2023/06/09 07:42:47;;;;;;;;;;;;;;;19.79;69.15;98022.19;7380518;19;19944;-77
2023/06/09 07:45:13;;;;;;;;;;;;;;;19.83;65.25;98022.56;7384434;19;20337;-77
2023/06/09 07:47:40;;;;;;;;;;;;;;;19.94;67.47;98024.50;7380417;19;19918;-80
2023/06/09 07:50:08;;;;;;;;;;;;;;;20.06;64.54;98022.69;7379219;19;19919;-76
2023/06/09 07:52:38;;;;;;;;;;;;;;;20.04;63.69;98013.25;7391432;19;19923;-78
2023/06/09 07:55:06;;;;;;;;;;;;;;;20.18;65.05;98015.50;7382984;19;19930;-78
2023/06/09 07:57:40;;;;;;;;;;;;;;;20.12;65.34;98019.13;7380905;19;19998;-78
2023/06/09 08:00:07;;;;;;;;;;;;;;;20.22;66.86;98013.22;7374866;19;19926;-78
2023/06/09 08:02:41;;;;;;;;;;;;;;;20.32;66.10;98015.34;7380109;19;19934;-82
2023/06/09 08:05:09;;;;;;;;;;;;;;;20.45;64.97;98011.66;7377340;19;19923;-77
2023/06/09 08:07:37;;;;;;;;;;;;;;;20.57;63.93;98008.00;7377592;19;19942;-77
2023/06/09 08:10:03;;;;;;;;;;;;;;;20.65;64.77;98000.66;7378181;19;19925;-79
2023/06/09 08:12:31;;;;;;;;;;;;;;;20.78;64.22;98003.16;7380920;19;19926;-77
2023/06/09 08:14:58;;;;;;;;;;;;;;;20.84;60.82;98004.91;7380930;19;19911;-80
2023/06/09 08:17:24;;;;;;;;;;;;;;;20.89;64.11;98002.34;7376180;19;19922;-82
2023/06/09 08:19:52;;;;;;;;;;;;;;;20.97;62.75;98007.38;7383458;19;20787;-81
2023/06/09 08:22:18;;;;;;;;;;;;;;;21.08;59.87;98000.38;7381452;19;19927;-82
2023/06/09 08:24:46;;;;;;;;;;;;;;;21.18;60.33;98003.31;7384733;19;19922;-80
2023/06/09 08:27:13;;;;;;;;;;;;;;;21.14;59.84;97995.94;7382583;19;19913;-79
2023/06/09 08:29:40;;;;;;;;;;;;;;;21.25;62.71;97992.44;7380451;19;19926;-80
2023/06/09 08:32:06;;;;;;;;;;;;;;;21.40;59.29;97983.91;7380271;19;19974;-79
2023/06/09 08:34:33;;;;;;;;;;;;;;;21.51;57.10;97980.41;7381193;19;19931;-78
2023/06/09 08:37:01;;;;;;;;;;;;;;;21.61;60.18;97986.00;7384699;19;19922;-81
2023/06/09 08:39:28;;;;;;;;;;;;;;;21.59;57.76;97976.53;7381334;19;19917;-79
2023/06/09 08:41:54;;;;;;;;;;;;;;;21.66;58.75;97980.72;7382870;19;19998;-80
2023/06/09 08:44:21;;;;;;;;;;;;;;;21.83;56.85;97970.06;7381455;19;19923;-78
2023/06/09 08:46:48;;;;;;;;;;;;;;;21.96;57.55;97976.22;7384995;19;19923;-84
2023/06/09 08:49:16;;;;;;;;;;;;;;;21.97;57.25;97973.28;7377638;19;20621;-79
2023/06/09 08:51:43;;;;;;;;;;;;;;;22.00;57.95;97963.91;7378134;19;19925;-80
2023/06/09 08:54:15;;;;;;;;;;;;;;;22.06;55.92;97971.03;7381815;19;20774;-82
2023/06/09 08:56:42;;;;;;;;;;;;;;;22.06;55.68;97962.94;7379703;19;19918;-80
2023/06/09 08:59:09;;;;;;;;;;;;;;;22.19;55.55;97967.28;7380589;19;19922;-78
2023/06/09 09:01:36;;;;;;;;;;;;;;;22.28;55.48;97963.16;7384127;19;20537;-81
2023/06/09 09:04:03;;;;;;;;;;;;;;;22.30;55.59;97969.09;7381742;19;19922;-79
2023/06/09 09:06:32;;;;;;;;;;;;;;;22.46;54.89;97972.88;7380070;19;19918;-81
2023/06/09 09:08:59;;;;;;;;;;;;;;;22.45;53.95;97969.38;7383499;19;19925;-79
2023/06/09 09:11:26;;;;;;;;;;;;;;;22.59;54.44;97953.69;7385755;19;19956;-83
2023/06/09 09:13:53;;;;;;;;;;;;;;;22.48;51.67;97952.72;7391264;19;19922;-82
2023/06/09 09:16:20;;;;;;;;;;;;;;;22.66;53.59;97964.34;7388885;19;20368;-79
2023/06/09 09:18:47;;;;;;;;;;;;;;;22.57;51.72;97967.44;7391168;19;19918;-79
2023/06/09 09:21:21;;;;;;;;;;;;;;;22.71;53.42;97956.34;7384331;19;19938;-83
2023/06/09 09:24:01;;;;;;;;;;;;;;;22.74;52.30;97967.44;7387945;19;20019;-79
2023/06/09 09:26:28;;;;;;;;;;;;;;;22.80;51.58;97971.03;7385874;19;19929;-78
2023/06/09 09:28:56;;;;;;;;;;;;;;;22.84;51.92;97974.09;7389837;19;19926;-81
2023/06/09 09:31:36;;;;;;;;;;;;;;;22.86;51.79;97959.28;7390850;19;19910;-80
2023/06/09 09:34:03;;;;;;;;;;;;;;;22.97;52.00;97966.50;7389467;19;19919;-84
2023/06/09 09:36:29;;;;;;;;;;;;;;;23.09;50.88;97958.34;7387322;19;19919;-82
2023/06/09 09:38:57;;;;;;;;;;;;;;;23.08;50.26;97956.69;7381178;19;19922;-79
2023/06/09 09:41:23;;;;;;;;;;;;;;;23.20;50.39;97953.91;7379419;19;19919;-83
2023/06/09 09:43:53;;;;;;;;;;;;;;;23.29;49.52;97947.00;7389608;19;19923;-82
2023/06/09 09:46:20;;;;;;;;;;;;;;;23.52;51.11;97943.28;7389876;19;20624;-80
2023/06/09 09:48:49;;;;;;;;;;;;;;;23.59;50.12;97945.78;7382011;19;19918;-81
2023/06/09 09:51:19;;;;;;;;;;;;;;;23.63;49.95;97945.03;7383677;19;19918;-81
2023/06/09 09:53:46;;;;;;;;;;;;;;;23.79;47.79;97935.28;7387431;19;19919;-78
2023/06/09 09:56:13;;;;;;;;;;;;;;;24.07;49.39;97934.25;7387917;19;19955;-79
2023/06/09 09:58:41;;;;;;;;;;;;;;;24.59;47.58;97938.28;7386581;19;19911;-81
2023/06/09 10:01:08;;;;;;;;;;;;;;;24.90;46.55;97928.53;7388955;19;19925;-87
2023/06/09 10:03:37;;;;;;;;;;;;;;;25.32;46.22;97929.66;7385127;19;19939;-83
2023/06/09 10:06:06;;;;;;;;;;;;;;;25.92;44.09;97930.25;7389701;19;19926;-82
2023/06/09 10:08:33;;;;;;;;;;;;;;;26.56;42.78;97923.63;7385101;19;19919;-81
2023/06/09 10:11:00;;;;;;;;;;;;;;;26.69;40.49;97921.16;7381562;19;19915;-81
2023/06/09 10:13:27;;;;;;;;;;;;;;;26.52;40.91;97926.06;7386077;19;19984;-80
2023/06/09 10:15:55;;;;;;;;;;;;;;;26.73;40.63;97923.38;7388531;19;19944;-83
2023/06/09 10:18:23;;;;;;;;;;;;;;;26.64;41.31;97921.16;7386534;19;19918;-78
2023/06/09 10:20:51;;;;;;;;;;;;;;;26.93;40.90;97924.13;7386322;19;20080;-79
2023/06/09 10:23:18;;;;;;;;;;;;;;;27.21;40.48;97929.31;7390075;19;19925;-85
2023/06/09 10:25:48;;;;;;;;;;;;;;;27.10;39.22;97918.44;7385838;19;19918;-82
2023/06/09 10:28:18;;;;;;;;;;;;;;;27.06;39.21;97920.06;7385255;19;19921;-79
2023/06/09 10:30:45;;;;;;;;;;;;;;;27.21;39.15;97921.97;7381557;19;19939;-78
2023/06/09 10:33:20;;;;;;;;;;;;;;;26.87;39.68;97914.38;7384255;19;19918;-80
2023/06/09 10:35:48;;;;;;;;;;;;;;;26.55;39.46;97914.66;7385397;19;20572;-77
2023/06/09 10:38:21;;;;;;;;;;;;;;;26.16;40.99;97915.13;7386425;19;20548;-79
2023/06/09 10:40:50;;;;;;;;;;;;;;;25.91;42.41;97928.59;7385552;19;19947;-78
2023/06/09 10:43:43;;;;;;;;;;;;;;;25.56;40.70;97920.03;7386553;19;19914;-79
2023/06/09 10:46:12;;;;;;;;;;;;;;;25.42;40.21;97923.50;7384337;19;19927;-79
2023/06/09 10:48:40;;;;;;;;;;;;;;;25.37;40.72;97922.38;7382223;19;20396;-78
2023/06/09 10:51:24;;;;;;;;;;;;;;;25.21;40.98;97920.66;7384979;19;19927;-78
2023/06/09 10:54:09;;;;;;;;;;;;;;;24.86;40.82;97918.53;7388170;19;19922;-78
2023/06/09 10:56:40;;;;;;;;;;;;;;;24.65;41.44;97920.25;7386088;19;19923;-81
2023/06/09 10:59:26;;;;;;;;;;;;;;;24.57;41.02;97902.59;7385322;19;19932;-80
2023/06/09 11:02:02;;;;;;;;;;;;;;;24.79;42.47;97898.97;7385058;19;19929;-79
2023/06/09 11:04:41;;;;;;;;;;;;;;;25.07;42.91;97898.63;7381454;19;20025;-78
2023/06/09 11:07:09;;;;;;;;;;;;;;;25.17;42.28;97901.44;7383383;19;19919;-79
2023/06/09 11:09:36;;;;;;;;;;;;;;;25.31;42.81;97901.78;7385426;19;19921;-79
2023/06/09 11:12:03;;;;;;;;;;;;;;;25.28;42.12;97902.31;7385069;19;19944;-80
2023/06/09 11:14:51;;;;;;;;;;;;;;;25.20;41.41;97900.09;7387528;19;19942;-80
2023/06/09 11:17:37;;;;;;;;;;;;;;;25.12;42.02;97903.25;7387235;19;19915;-79
2023/06/09 11:20:08;;;;;;;;;;;;;;;25.13;42.83;97894.06;7380796;19;19915;-80
2023/06/09 11:22:41;;;;;;;;;;;;;;;25.09;43.01;97895.66;7388633;19;19919;-82
2023/06/09 11:25:08;;;;;;;;;;;;;;;25.02;43.96;97892.38;7393326;19;19918;-81
2023/06/09 11:27:36;;;;;;;;;;;;;;;24.97;45.47;97893.97;7381277;19;20352;-82
2023/06/09 11:30:20;;;;;;;;;;;;;;;25.02;45.39;97890.47;7387002;19;20513;-81
2023/06/09 11:32:46;;;;;;;;;;;;;;;25.08;44.03;97886.72;7387253;19;20400;-82
2023/06/09 11:35:22;;;;;;;;;;;;;;;25.10;45.35;97883.75;7383058;19;19918;-81
2023/06/09 11:37:52;;;;;;;;;;;;;;;25.05;44.89;97881.84;7387827;19;19921;-81
2023/06/09 11:40:19;;;;;;;;;;;;;;;24.97;45.29;97887.75;7383852;19;20423;-79
2023/06/09 11:42:46;;;;;;;;;;;;;;;24.92;44.91;97880.41;7385746;19;19911;-80
2023/06/09 11:45:13;;;;;;;;;;;;;;;24.75;45.65;97885.97;7383514;19;19914;-86
2023/06/09 11:47:40;;;;;;;;;;;;;;;24.70;45.18;97885.94;7386782;19;19955;-81
2023/06/09 11:50:11;;;;;;;;;;;;;;;24.70;44.67;97882.41;7387299;19;20361;-82
2023/06/09 11:52:39;;;;;;;;;;;;;;;24.62;45.10;97883.72;7386381;19;19955;-79
2023/06/09 11:55:06;;;;;;;;;;;;;;;24.55;46.00;97883.09;7383747;19;19922;-79
2023/06/09 11:57:33;;;;;;;;;;;;;;;24.49;43.71;97879.53;7382392;19;19925;-78
2023/06/09 12:00:12;;;;;;;;;;;;;;;24.50;42.32;97885.75;7385391;19;19922;-79
2023/06/09 12:02:42;;;;;;;;;;;;;;;24.49;44.47;97879.53;7383945;19;19918;-79
2023/06/09 12:05:12;;;;;;;;;;;;;;;24.45;44.73;97883.81;7382536;19;19938;-80
2023/06/09 12:07:45;;;;;;;;;;;;;;;24.47;42.91;97870.06;7389357;19;20291;-76
2023/06/09 12:10:12;;;;;;;;;;;;;;;24.51;42.34;97872.00;7380002;19;19968;-79
2023/06/09 12:12:49;;;;;;;;;;;;;;;24.65;43.46;97866.97;7382322;19;19921;-78
2023/06/09 12:15:19;;;;;;;;;;;;;;;24.88;42.92;97859.53;7386073;19;20400;-79
2023/06/09 12:17:47;;;;;;;;;;;;;;;24.97;42.24;97860.69;7386644;19;20679;-78
2023/06/09 12:20:31;;;;;;;;;;;;;;;25.10;42.03;97865.63;7381660;19;19921;-80
2023/06/09 12:22:58;;;;;;;;;;;;;;;25.16;41.43;97858.38;7377167;19;19919;-79
2023/06/09 12:25:30;;;;;;;;;;;;;;;25.21;42.29;97863.00;7379761;19;19918;-82
2023/06/09 12:27:57;;;;;;;;;;;;;;;25.16;42.65;97850.25;7385616;19;19927;-80
2023/06/09 12:30:38;;;;;;;;;;;;;;;25.26;41.93;97850.31;7378731;19;19922;-80
2023/06/09 12:33:08;;;;;;;;;;;;;;;25.42;41.45;97851.19;7386956;19;19919;-80
2023/06/09 12:35:37;;;;;;;;;;;;;;;25.53;41.56;97843.91;7382728;19;20275;-83
2023/06/09 12:38:13;;;;;;;;;;;;;;;25.50;39.93;97853.38;7385364;19;19931;-77
2023/06/09 12:40:50;;;;;;;;;;;;;;;25.40;42.27;97846.03;7383113;19;19915;-80
2023/06/09 12:43:18;;;;;;;;;;;;;;;25.34;42.08;97846.28;7384013;19;19966;-81
2023/06/09 12:45:47;;;;;;;;;;;;;;;25.12;40.18;97841.00;7390161;19;19922;-78
2023/06/09 12:48:15;;;;;;;;;;;;;;;25.01;40.16;97842.81;7393786;19;19915;-79
2023/06/09 12:50:43;;;;;;;;;;;;;;;25.01;41.40;97842.00;7390576;19;19915;-84
2023/06/09 12:53:10;;;;;;;;;;;;;;;25.07;41.15;97841.00;7391943;19;19936;-79
2023/06/09 12:55:37;;;;;;;;;;;;;;;25.17;39.98;97825.66;7391247;19;20006;-77